sensor_id;sensor_type;location;lat;lon;timestamp;pressure;altitude;pressure_sealevel;temperature;humidity
38022;BME280;23832;43.216;27.946;2022-07-10T00:01:11;100047.28;;;24.94;82.72
38022;BME280;23832;43.216;27.946;2022-07-10T00:03:13;100043.25;;;24.91;82.26
38022;BME280;23832;43.216;27.946;2022-07-10T00:05:16;100048.41;;;24.87;82.55
38022;BME280;23832;43.216;27.946;2022-07-10T00:07:17;100046.78;;;24.86;82.55
38022;BME280;23832;43.216;27.946;2022-07-10T00:09:19;100048.16;;;24.84;82.43
38022;BME280;23832;43.216;27.946;2022-07-10T00:11:22;100051.16;;;24.82;81.97
38022;BME280;23832;43.216;27.946;2022-07-10T00:13:25;100039.00;;;24.80;81.86
38022;BME280;23832;43.216;27.946;2022-07-10T00:15:27;100035.00;;;24.77;81.69
38022;BME280;23832;43.216;27.946;2022-07-10T00:17:29;100040.97;;;24.74;81.24
38022;BME280;23832;43.216;27.946;2022-07-10T00:19:30;100036.66;;;24.73;80.77
38022;BME280;23832;43.216;27.946;2022-07-10T00:21:32;100041.50;;;24.71;80.01
38022;BME280;23832;43.216;27.946;2022-07-10T00:23:34;100038.81;;;24.71;79.26
38022;BME280;23832;43.216;27.946;2022-07-10T00:25:35;100036.41;;;24.70;78.69
38022;BME280;23832;43.216;27.946;2022-07-10T00:27:37;100031.81;;;24.70;78.26
38022;BME280;23832;43.216;27.946;2022-07-10T00:29:40;100032.38;;;24.67;77.47
38022;BME280;23832;43.216;27.946;2022-07-10T00:31:42;100030.78;;;24.66;77.74
38022;BME280;23832;43.216;27.946;2022-07-10T00:33:43;100027.56;;;24.64;77.60
38022;BME280;23832;43.216;27.946;2022-07-10T00:35:45;100027.56;;;24.64;78.29
38022;BME280;23832;43.216;27.946;2022-07-10T00:37:47;100022.16;;;24.64;78.93
38022;BME280;23832;43.216;27.946;2022-07-10T00:39:48;100031.34;;;24.63;79.13
38022;BME280;23832;43.216;27.946;2022-07-10T00:41:50;100030.25;;;24.64;79.31
38022;BME280;23832;43.216;27.946;2022-07-10T00:43:53;100022.97;;;24.65;79.39
38022;BME280;23832;43.216;27.946;2022-07-10T00:45:56;100018.94;;;24.62;80.07
38022;BME280;23832;43.216;27.946;2022-07-10T00:47:58;100024.31;;;24.62;80.43
38022;BME280;23832;43.216;27.946;2022-07-10T00:50:00;100022.19;;;24.59;80.88
38022;BME280;23832;43.216;27.946;2022-07-10T00:52:03;100017.91;;;24.58;80.99
38022;BME280;23832;43.216;27.946;2022-07-10T00:54:05;100023.56;;;24.56;81.64
38022;BME280;23832;43.216;27.946;2022-07-10T00:56:07;100017.66;;;24.54;82.21
38022;BME280;23832;43.216;27.946;2022-07-10T00:58:09;100016.31;;;24.52;82.49
38022;BME280;23832;43.216;27.946;2022-07-10T01:00:12;100012.81;;;24.51;82.48
38022;BME280;23832;43.216;27.946;2022-07-10T01:02:15;100013.38;;;24.48;82.07
38022;BME280;23832;43.216;27.946;2022-07-10T01:04:17;100016.88;;;24.49;82.68
38022;BME280;23832;43.216;27.946;2022-07-10T01:06:19;100024.97;;;24.49;82.19
38022;BME280;23832;43.216;27.946;2022-07-10T01:08:21;100008.78;;;24.49;81.35
38022;BME280;23832;43.216;27.946;2022-07-10T01:10:23;100002.59;;;24.48;80.95
38022;BME280;23832;43.216;27.946;2022-07-10T01:12:25;100008.78;;;24.49;80.86
38022;BME280;23832;43.216;27.946;2022-07-10T01:14:27;100020.38;;;24.49;81.60
38022;BME280;23832;43.216;27.946;2022-07-10T01:16:29;100023.88;;;24.50;82.58
38022;BME280;23832;43.216;27.946;2022-07-10T01:18:32;100029.78;;;24.52;83.30
38022;BME280;23832;43.216;27.946;2022-07-10T01:20:34;100031.97;;;24.50;84.03
38022;BME280;23832;43.216;27.946;2022-07-10T01:22:37;100033.84;;;24.49;84.87
38022;BME280;23832;43.216;27.946;2022-07-10T01:24:39;100022.28;;;24.49;85.69
38022;BME280;23832;43.216;27.946;2022-07-10T01:26:41;100026.56;;;24.50;86.46
38022;BME280;23832;43.216;27.946;2022-07-10T01:28:43;100009.59;;;24.49;87.15
38022;BME280;23832;43.216;27.946;2022-07-10T01:30:45;100020.09;;;24.51;86.63
38022;BME280;23832;43.216;27.946;2022-07-10T01:32:47;100011.50;;;24.49;86.46
38022;BME280;23832;43.216;27.946;2022-07-10T01:34:48;100018.47;;;24.50;86.77
38022;BME280;23832;43.216;27.946;2022-07-10T01:36:50;100013.09;;;24.50;87.15
38022;BME280;23832;43.216;27.946;2022-07-10T01:38:53;100015.00;;;24.49;88.10
38022;BME280;23832;43.216;27.946;2022-07-10T01:40:55;100007.72;;;24.50;89.98
38022;BME280;23832;43.216;27.946;2022-07-10T01:42:57;100008.00;;;24.48;91.35
38022;BME280;23832;43.216;27.946;2022-07-10T01:44:59;100008.78;;;24.49;93.07
38022;BME280;23832;43.216;27.946;2022-07-10T01:47:01;100005.59;;;24.47;94.37
38022;BME280;23832;43.216;27.946;2022-07-10T01:49:03;100005.06;;;24.45;96.77
38022;BME280;23832;43.216;27.946;2022-07-10T01:51:04;100002.91;;;24.42;98.03
38022;BME280;23832;43.216;27.946;2022-07-10T01:53:06;99997.28;;;24.38;98.93
38022;BME280;23832;43.216;27.946;2022-07-10T01:55:09;99994.34;;;24.34;100.00
38022;BME280;23832;43.216;27.946;2022-07-10T01:57:11;99994.91;;;24.31;100.00
38022;BME280;23832;43.216;27.946;2022-07-10T01:59:13;99991.66;;;24.24;100.00
38022;BME280;23832;43.216;27.946;2022-07-10T02:01:15;99998.72;;;24.20;100.00
38022;BME280;23832;43.216;27.946;2022-07-10T02:03:17;99992.53;;;24.15;100.00
38022;BME280;23832;43.216;27.946;2022-07-10T02:05:36;99997.69;;;24.11;100.00
38022;BME280;23832;43.216;27.946;2022-07-10T02:07:38;100008.47;;;24.06;100.00
38022;BME280;23832;43.216;27.946;2022-07-10T02:09:40;100004.75;;;24.02;100.00
38022;BME280;23832;43.216;27.946;2022-07-10T02:11:43;100012.81;;;23.97;100.00
38022;BME280;23832;43.216;27.946;2022-07-10T02:13:45;100017.69;;;23.90;100.00
38022;BME280;23832;43.216;27.946;2022-07-10T02:15:47;100017.69;;;23.90;100.00
38022;BME280;23832;43.216;27.946;2022-07-10T02:17:49;100016.66;;;23.86;100.00
38022;BME280;23832;43.216;27.946;2022-07-10T02:19:50;100017.22;;;23.83;100.00
38022;BME280;23832;43.216;27.946;2022-07-10T02:21:52;100023.41;;;23.83;100.00
38022;BME280;23832;43.216;27.946;2022-07-10T02:23:54;100020.16;;;23.81;100.00
38022;BME280;23832;43.216;27.946;2022-07-10T02:25:56;100039.28;;;23.79;100.00
38022;BME280;23832;43.216;27.946;2022-07-10T02:27:59;100028.78;;;23.78;100.00
38022;BME280;23832;43.216;27.946;2022-07-10T02:30:01;100041.19;;;23.74;100.00
38022;BME280;23832;43.216;27.946;2022-07-10T02:32:03;100051.69;;;23.70;100.00
38022;BME280;23832;43.216;27.946;2022-07-10T02:34:05;100060.88;;;23.64;100.00
38022;BME280;23832;43.216;27.946;2022-07-10T02:36:07;100074.31;;;23.64;100.00
38022;BME280;23832;43.216;27.946;2022-07-10T02:38:08;100084.00;;;23.65;100.00
38022;BME280;23832;43.216;27.946;2022-07-10T02:40:10;100083.44;;;23.63;100.00
38022;BME280;23832;43.216;27.946;2022-07-10T02:42:12;100097.72;;;23.64;100.00
38022;BME280;23832;43.216;27.946;2022-07-10T02:44:15;100098.78;;;23.63;100.00
38022;BME280;23832;43.216;27.946;2022-07-10T02:46:16;100104.97;;;23.63;100.00
38022;BME280;23832;43.216;27.946;2022-07-10T02:48:18;100106.59;;;23.64;100.00
38022;BME280;23832;43.216;27.946;2022-07-10T02:50:20;100104.97;;;23.63;100.00
38022;BME280;23832;43.216;27.946;2022-07-10T02:52:22;100111.72;;;23.61;100.00
38022;BME280;23832;43.216;27.946;2022-07-10T02:54:23;100119.50;;;23.62;100.00
38022;BME280;23832;43.216;27.946;2022-07-10T02:56:25;100109.03;;;23.61;100.00
38022;BME280;23832;43.216;27.946;2022-07-10T02:58:27;100113.84;;;23.59;100.00
38022;BME280;23832;43.216;27.946;2022-07-10T03:00:30;100113.03;;;23.58;100.00
38022;BME280;23832;43.216;27.946;2022-07-10T03:02:33;100115.72;;;23.58;100.00
38022;BME280;23832;43.216;27.946;2022-07-10T03:04:35;100114.69;;;23.59;100.00
38022;BME280;23832;43.216;27.946;2022-07-10T03:06:36;100106.84;;;23.58;100.00
38022;BME280;23832;43.216;27.946;2022-07-10T03:08:38;100108.47;;;23.59;100.00
38022;BME280;23832;43.216;27.946;2022-07-10T03:10:40;100107.66;;;23.58;100.00
38022;BME280;23832;43.216;27.946;2022-07-10T03:12:41;100110.09;;;23.60;100.00
38022;BME280;23832;43.216;27.946;2022-07-10T03:14:43;100098.53;;;23.59;100.00
38022;BME280;23832;43.216;27.946;2022-07-10T03:16:46;100100.94;;;23.61;100.00
38022;BME280;23832;43.216;27.946;2022-07-10T03:18:49;100100.66;;;23.62;100.00
38022;BME280;23832;43.216;27.946;2022-07-10T03:20:50;100096.66;;;23.65;100.00
38022;BME280;23832;43.216;27.946;2022-07-10T03:22:52;100092.31;;;23.69;100.00
38022;BME280;23832;43.216;27.946;2022-07-10T03:24:54;100090.97;;;23.71;100.00
38022;BME280;23832;43.216;27.946;2022-07-10T03:26:55;100089.63;;;23.74;100.00
38022;BME280;23832;43.216;27.946;2022-07-10T03:28:57;100086.13;;;23.73;100.00
38022;BME280;23832;43.216;27.946;2022-07-10T03:30:59;100082.38;;;23.74;100.00
38022;BME280;23832;43.216;27.946;2022-07-10T03:33:02;100089.34;;;23.75;100.00
38022;BME280;23832;43.216;27.946;2022-07-10T03:35:04;100091.50;;;23.78;100.00
38022;BME280;23832;43.216;27.946;2022-07-10T03:37:06;100097.41;;;23.81;100.00
38022;BME280;23832;43.216;27.946;2022-07-10T03:39:08;100096.88;;;23.84;100.00
38022;BME280;23832;43.216;27.946;2022-07-10T03:41:10;100093.38;;;23.83;100.00
38022;BME280;23832;43.216;27.946;2022-07-10T03:43:11;100101.19;;;23.85;100.00
38022;BME280;23832;43.216;27.946;2022-07-10T03:45:13;100097.41;;;23.86;100.00
38022;BME280;23832;43.216;27.946;2022-07-10T03:47:15;100106.00;;;23.88;100.00
38022;BME280;23832;43.216;27.946;2022-07-10T03:49:18;100100.63;;;23.88;100.00
38022;BME280;23832;43.216;27.946;2022-07-10T03:51:19;100106.81;;;23.88;100.00
38022;BME280;23832;43.216;27.946;2022-07-10T03:53:21;100102.25;;;23.84;100.00
38022;BME280;23832;43.216;27.946;2022-07-10T03:55:23;100111.09;;;23.89;100.00
38022;BME280;23832;43.216;27.946;2022-07-10T03:57:25;100109.22;;;23.90;100.00
38022;BME280;23832;43.216;27.946;2022-07-10T03:59:43;100106.28;;;23.91;100.00
38022;BME280;23832;43.216;27.946;2022-07-10T04:01:45;100106.00;;;23.93;100.00
38022;BME280;23832;43.216;27.946;2022-07-10T04:03:47;100096.84;;;23.94;100.00
38022;BME280;23832;43.216;27.946;2022-07-10T04:05:50;100095.75;;;23.95;98.58
38022;BME280;23832;43.216;27.946;2022-07-10T04:07:52;100091.69;;;23.97;100.00
38022;BME280;23832;43.216;27.946;2022-07-10T04:09:54;100089.81;;;23.98;100.00
38022;BME280;23832;43.216;27.946;2022-07-10T04:11:56;100099.50;;;23.99;98.49
38022;BME280;23832;43.216;27.946;2022-07-10T04:13:58;100093.88;;;24.00;96.76
38022;BME280;23832;43.216;27.946;2022-07-10T04:16:00;100104.88;;;24.04;95.46
38022;BME280;23832;43.216;27.946;2022-07-10T04:18:02;100098.94;;;24.07;96.15
38022;BME280;23832;43.216;27.946;2022-07-10T04:20:04;100101.09;;;24.05;94.39
38022;BME280;23832;43.216;27.946;2022-07-10T04:22:07;100088.16;;;24.07;92.21
38022;BME280;23832;43.216;27.946;2022-07-10T04:24:08;100102.19;;;24.09;92.80
38022;BME280;23832;43.216;27.946;2022-07-10T04:26:10;100103.78;;;24.10;93.08
38022;BME280;23832;43.216;27.946;2022-07-10T04:28:12;100093.53;;;24.12;92.23
38022;BME280;23832;43.216;27.946;2022-07-10T04:30:14;100099.72;;;24.18;92.28
38022;BME280;23832;43.216;27.946;2022-07-10T04:32:16;100104.28;;;24.22;93.24
38022;BME280;23832;43.216;27.946;2022-07-10T04:34:18;100101.56;;;24.27;93.53
38022;BME280;23832;43.216;27.946;2022-07-10T04:36:19;100095.09;;;24.28;88.10
38022;BME280;23832;43.216;27.946;2022-07-10T04:38:22;100099.13;;;24.31;88.59
38022;BME280;23832;43.216;27.946;2022-07-10T04:40:24;100096.44;;;24.36;89.54
38022;BME280;23832;43.216;27.946;2022-07-10T04:42:26;100105.03;;;24.38;89.14
38022;BME280;23832;43.216;27.946;2022-07-10T04:44:27;100106.59;;;24.44;86.68
38022;BME280;23832;43.216;27.946;2022-07-10T04:46:29;100105.78;;;24.54;89.10
38022;BME280;23832;43.216;27.946;2022-07-10T04:48:31;100104.91;;;24.63;88.48
38022;BME280;23832;43.216;27.946;2022-07-10T04:50:33;100105.94;;;24.73;82.96
38022;BME280;23832;43.216;27.946;2022-07-10T04:52:35;100104.50;;;24.85;85.16
38022;BME280;23832;43.216;27.946;2022-07-10T04:54:38;100107.38;;;24.99;81.43
38022;BME280;23832;43.216;27.946;2022-07-10T04:56:40;100113.25;;;25.11;77.59
38022;BME280;23832;43.216;27.946;2022-07-10T04:58:42;100120.97;;;25.23;75.65
38022;BME280;23832;43.216;27.946;2022-07-10T05:00:43;100120.31;;;25.36;76.23
38022;BME280;23832;43.216;27.946;2022-07-10T05:02:45;100123.22;;;25.45;74.07
38022;BME280;23832;43.216;27.946;2022-07-10T05:04:47;100123.13;;;25.55;76.48
38022;BME280;23832;43.216;27.946;2022-07-10T05:06:49;100128.13;;;25.67;74.87
38022;BME280;23832;43.216;27.946;2022-07-10T05:08:51;100132.66;;;25.77;72.61
38022;BME280;23832;43.216;27.946;2022-07-10T05:10:55;100135.53;;;25.85;71.75
38022;BME280;23832;43.216;27.946;2022-07-10T05:12:56;100132.72;;;25.95;68.08
38022;BME280;23832;43.216;27.946;2022-07-10T05:14:58;100136.16;;;26.01;67.21
38022;BME280;23832;43.216;27.946;2022-07-10T05:17:01;100134.75;;;26.09;66.55
38022;BME280;23832;43.216;27.946;2022-07-10T05:19:03;100137.91;;;26.16;65.04
38022;BME280;23832;43.216;27.946;2022-07-10T05:21:05;100137.25;;;26.24;64.87
38022;BME280;23832;43.216;27.946;2022-07-10T05:23:06;100137.41;;;26.32;64.30
38022;BME280;23832;43.216;27.946;2022-07-10T05:25:08;100140.34;;;26.36;63.19
38022;BME280;23832;43.216;27.946;2022-07-10T05:27:11;100134.53;;;26.48;63.75
38022;BME280;23832;43.216;27.946;2022-07-10T05:29:13;100136.31;;;26.57;61.97
38022;BME280;23832;43.216;27.946;2022-07-10T05:31:14;100141.06;;;26.66;61.63
38022;BME280;23832;43.216;27.946;2022-07-10T05:33:16;100140.91;;;26.76;61.12
38022;BME280;23832;43.216;27.946;2022-07-10T05:35:18;100142.47;;;26.82;61.49
38022;BME280;23832;43.216;27.946;2022-07-10T05:37:19;100140.41;;;26.93;61.72
38022;BME280;23832;43.216;27.946;2022-07-10T05:39:21;100143.25;;;27.01;60.41
38022;BME280;23832;43.216;27.946;2022-07-10T05:41:26;100144.81;;;27.07;60.32
38022;BME280;23832;43.216;27.946;2022-07-10T05:43:29;100148.78;;;27.15;60.35
38022;BME280;23832;43.216;27.946;2022-07-10T05:45:31;100147.56;;;27.21;59.21
38022;BME280;23832;43.216;27.946;2022-07-10T05:47:33;100151.44;;;27.34;60.01
38022;BME280;23832;43.216;27.946;2022-07-10T05:49:34;100151.28;;;27.44;59.75
38022;BME280;23832;43.216;27.946;2022-07-10T05:51:36;100153.81;;;27.54;58.38
38022;BME280;23832;43.216;27.946;2022-07-10T05:53:38;100150.91;;;27.64;57.18
38022;BME280;23832;43.216;27.946;2022-07-10T05:55:40;100145.94;;;27.71;56.55
38022;BME280;23832;43.216;27.946;2022-07-10T05:57:42;100141.13;;;27.82;57.26
38022;BME280;23832;43.216;27.946;2022-07-10T05:59:45;100133.13;;;27.91;56.70
38022;BME280;23832;43.216;27.946;2022-07-10T06:01:46;100135.63;;;28.01;55.76
38022;BME280;23832;43.216;27.946;2022-07-10T06:03:48;100137.94;;;28.08;55.00
38022;BME280;23832;43.216;27.946;2022-07-10T06:05:50;100142.34;;;28.17;55.56
38022;BME280;23832;43.216;27.946;2022-07-10T06:07:52;100138.16;;;28.25;55.31
38022;BME280;23832;43.216;27.946;2022-07-10T06:09:53;100131.75;;;28.35;55.72
38022;BME280;23832;43.216;27.946;2022-07-10T06:11:55;100134.22;;;28.45;55.86
38022;BME280;23832;43.216;27.946;2022-07-10T06:13:57;100124.88;;;28.51;54.69
38022;BME280;23832;43.216;27.946;2022-07-10T06:16:00;100128.19;;;28.62;55.57
38022;BME280;23832;43.216;27.946;2022-07-10T06:18:02;100130.97;;;28.70;54.63
38022;BME280;23832;43.216;27.946;2022-07-10T06:20:04;100127.84;;;28.77;53.84
38022;BME280;23832;43.216;27.946;2022-07-10T06:22:06;100135.53;;;28.83;54.28
38022;BME280;23832;43.216;27.946;2022-07-10T06:24:25;100127.22;;;28.94;53.89
38022;BME280;23832;43.216;27.946;2022-07-10T06:26:27;100139.53;;;29.00;53.72
38022;BME280;23832;43.216;27.946;2022-07-10T06:28:29;100134.59;;;29.02;52.12
38022;BME280;23832;43.216;27.946;2022-07-10T06:30:30;100138.94;;;29.03;52.15
38022;BME280;23832;43.216;27.946;2022-07-10T06:32:34;100141.81;;;29.06;52.13
38022;BME280;23832;43.216;27.946;2022-07-10T06:34:35;100144.84;;;29.05;52.30
38022;BME280;23832;43.216;27.946;2022-07-10T06:36:37;100152.84;;;29.10;52.36
38022;BME280;23832;43.216;27.946;2022-07-10T06:38:38;100152.75;;;29.15;52.16
38022;BME280;23832;43.216;27.946;2022-07-10T06:40:41;100136.31;;;29.20;52.20
38022;BME280;23832;43.216;27.946;2022-07-10T06:42:43;100138.13;;;29.25;50.71
38022;BME280;23832;43.216;27.946;2022-07-10T06:44:46;100144.03;;;29.27;50.08
38022;BME280;23832;43.216;27.946;2022-07-10T06:46:48;100137.50;;;29.28;50.02
38022;BME280;23832;43.216;27.946;2022-07-10T06:49:05;100137.19;;;29.29;50.30
38022;BME280;23832;43.216;27.946;2022-07-10T06:51:06;100142.91;;;29.28;50.02
38022;BME280;23832;43.216;27.946;2022-07-10T06:53:09;100142.91;;;29.28;49.23
38022;BME280;23832;43.216;27.946;2022-07-10T06:55:11;100150.31;;;29.36;50.61
38022;BME280;23832;43.216;27.946;2022-07-10T06:57:13;100148.09;;;29.38;50.16
38022;BME280;23832;43.216;27.946;2022-07-10T06:59:15;100136.31;;;29.43;48.95
38022;BME280;23832;43.216;27.946;2022-07-10T07:01:17;100137.28;;;29.47;49.55
38022;BME280;23832;43.216;27.946;2022-07-10T07:03:18;100131.78;;;29.52;48.89
38022;BME280;23832;43.216;27.946;2022-07-10T07:05:22;100132.72;;;29.56;47.30
38022;BME280;23832;43.216;27.946;2022-07-10T07:07:24;100131.34;;;29.58;47.02
38022;BME280;23832;43.216;27.946;2022-07-10T07:09:26;100136.94;;;29.62;46.97
38022;BME280;23832;43.216;27.946;2022-07-10T07:11:27;100125.44;;;29.65;46.40
38022;BME280;23832;43.216;27.946;2022-07-10T07:13:29;100127.22;;;29.70;46.35
38022;BME280;23832;43.216;27.946;2022-07-10T07:15:31;100133.81;;;29.77;46.56
38022;BME280;23832;43.216;27.946;2022-07-10T07:17:39;100131.94;;;29.86;46.84
38022;BME280;23832;43.216;27.946;2022-07-10T07:19:56;100121.25;;;29.99;46.44
38022;BME280;23832;43.216;27.946;2022-07-10T07:22:17;100122.72;;;30.05;45.30
38022;BME280;23832;43.216;27.946;2022-07-10T07:24:36;100133.66;;;30.13;45.34
38022;BME280;23832;43.216;27.946;2022-07-10T07:26:38;100125.66;;;30.17;44.62
38022;BME280;23832;43.216;27.946;2022-07-10T07:28:39;100128.38;;;30.17;44.39
38022;BME280;23832;43.216;27.946;2022-07-10T07:30:41;100132.69;;;30.18;43.98
38022;BME280;23832;43.216;27.946;2022-07-10T07:32:44;100129.06;;;30.22;44.70
38022;BME280;23832;43.216;27.946;2022-07-10T07:34:46;100131.59;;;30.28;45.40
38022;BME280;23832;43.216;27.946;2022-07-10T07:36:48;100129.22;;;30.35;45.50
38022;BME280;23832;43.216;27.946;2022-07-10T07:38:51;100134.69;;;30.43;44.43
38022;BME280;23832;43.216;27.946;2022-07-10T07:40:53;100123.34;;;30.50;43.68
38022;BME280;23832;43.216;27.946;2022-07-10T07:42:55;100132.78;;;30.61;43.33
38022;BME280;23832;43.216;27.946;2022-07-10T07:44:57;100131.22;;;30.69;44.11
38022;BME280;23832;43.216;27.946;2022-07-10T07:46:58;100130.44;;;30.77;43.25
38022;BME280;23832;43.216;27.946;2022-07-10T07:49:00;100128.97;;;30.88;43.87
38022;BME280;23832;43.216;27.946;2022-07-10T07:51:02;100136.34;;;30.96;43.21
38022;BME280;23832;43.216;27.946;2022-07-10T07:53:04;100137.63;;;30.99;42.37
38022;BME280;23832;43.216;27.946;2022-07-10T07:55:08;100134.41;;;31.05;42.79
38022;BME280;23832;43.216;27.946;2022-07-10T07:57:10;100130.88;;;31.14;42.99
38022;BME280;23832;43.216;27.946;2022-07-10T07:59:12;100129.31;;;31.21;42.53
38022;BME280;23832;43.216;27.946;2022-07-10T08:01:14;100133.31;;;31.24;41.76
38022;BME280;23832;43.216;27.946;2022-07-10T08:03:15;100124.00;;;31.25;42.17
38022;BME280;23832;43.216;27.946;2022-07-10T08:05:17;100127.19;;;31.35;43.70
38022;BME280;23832;43.216;27.946;2022-07-10T08:07:19;100126.03;;;31.45;43.31
38022;BME280;23832;43.216;27.946;2022-07-10T08:09:21;100128.75;;;31.54;43.02
38022;BME280;23832;43.216;27.946;2022-07-10T08:11:24;100130.81;;;31.66;43.25
38022;BME280;23832;43.216;27.946;2022-07-10T08:13:26;100125.03;;;31.76;42.98
38022;BME280;23832;43.216;27.946;2022-07-10T08:15:29;100130.78;;;31.83;42.26
38022;BME280;23832;43.216;27.946;2022-07-10T08:17:31;100128.31;;;31.90;42.12
38022;BME280;23832;43.216;27.946;2022-07-10T08:19:32;100144.50;;;31.95;43.49
38022;BME280;23832;43.216;27.946;2022-07-10T08:21:35;100126.97;;;32.05;43.71
38022;BME280;23832;43.216;27.946;2022-07-10T08:23:36;100136.22;;;32.12;42.97
38022;BME280;23832;43.216;27.946;2022-07-10T08:25:38;100130.72;;;32.21;42.43
38022;BME280;23832;43.216;27.946;2022-07-10T08:27:41;100130.06;;;32.24;41.61
38022;BME280;23832;43.216;27.946;2022-07-10T08:29:43;100133.13;;;32.23;41.59
38022;BME280;23832;43.216;27.946;2022-07-10T08:31:45;100134.88;;;32.27;41.73
38022;BME280;23832;43.216;27.946;2022-07-10T08:33:46;100145.16;;;32.30;41.49
38022;BME280;23832;43.216;27.946;2022-07-10T08:35:48;100135.97;;;32.35;41.46
38022;BME280;23832;43.216;27.946;2022-07-10T08:37:50;100139.31;;;32.40;41.95
38022;BME280;23832;43.216;27.946;2022-07-10T08:39:51;100143.28;;;32.43;41.46
38022;BME280;23832;43.216;27.946;2022-07-10T08:41:53;100140.25;;;32.44;41.39
38022;BME280;23832;43.216;27.946;2022-07-10T08:43:56;100147.91;;;32.51;41.14
38022;BME280;23832;43.216;27.946;2022-07-10T08:46:01;100140.31;;;32.57;41.26
38022;BME280;23832;43.216;27.946;2022-07-10T08:48:03;100139.19;;;32.58;41.43
38022;BME280;23832;43.216;27.946;2022-07-10T08:50:07;100137.06;;;32.63;41.87
38022;BME280;23832;43.216;27.946;2022-07-10T08:52:18;100137.66;;;32.69;40.89
38022;BME280;23832;43.216;27.946;2022-07-10T08:54:25;100146.78;;;32.73;40.43
38022;BME280;23832;43.216;27.946;2022-07-10T08:56:29;100145.13;;;32.81;40.57
38022;BME280;23832;43.216;27.946;2022-07-10T08:58:31;100152.25;;;32.94;40.69
38022;BME280;23832;43.216;27.946;2022-07-10T09:00:35;100147.97;;;33.05;40.34
38022;BME280;23832;43.216;27.946;2022-07-10T09:02:37;100143.03;;;33.19;40.18
38022;BME280;23832;43.216;27.946;2022-07-10T09:04:39;100142.63;;;33.29;40.27
38022;BME280;23832;43.216;27.946;2022-07-10T09:06:40;100140.63;;;33.39;39.88
38022;BME280;23832;43.216;27.946;2022-07-10T09:08:57;100138.38;;;33.53;39.95
38022;BME280;23832;43.216;27.946;2022-07-10T09:11:14;100136.91;;;33.68;40.31
38022;BME280;23832;43.216;27.946;2022-07-10T09:13:16;100129.63;;;33.84;39.91
38022;BME280;23832;43.216;27.946;2022-07-10T09:15:19;100134.69;;;33.94;39.27
38022;BME280;23832;43.216;27.946;2022-07-10T09:17:23;100132.63;;;34.03;38.66
38022;BME280;23832;43.216;27.946;2022-07-10T09:19:25;100140.28;;;34.10;37.96
38022;BME280;23832;43.216;27.946;2022-07-10T09:21:27;100136.03;;;34.12;37.83
38022;BME280;23832;43.216;27.946;2022-07-10T09:23:33;100140.72;;;34.12;37.67
38022;BME280;23832;43.216;27.946;2022-07-10T09:25:35;100137.75;;;34.17;37.43
38022;BME280;23832;43.216;27.946;2022-07-10T09:27:50;100126.56;;;34.22;37.17
38022;BME280;23832;43.216;27.946;2022-07-10T09:29:52;100123.50;;;34.24;36.63
38022;BME280;23832;43.216;27.946;2022-07-10T09:31:56;100119.75;;;34.28;37.40
38022;BME280;23832;43.216;27.946;2022-07-10T09:34:00;100123.13;;;34.37;38.05
38022;BME280;23832;43.216;27.946;2022-07-10T09:36:05;100121.81;;;34.43;37.12
38022;BME280;23832;43.216;27.946;2022-07-10T09:38:07;100114.13;;;34.49;36.78
38022;BME280;23832;43.216;27.946;2022-07-10T09:40:08;100123.13;;;34.50;35.92
38022;BME280;23832;43.216;27.946;2022-07-10T09:42:11;100102.81;;;34.51;35.36
38022;BME280;23832;43.216;27.946;2022-07-10T09:44:25;100115.41;;;34.52;35.03
38022;BME280;23832;43.216;27.946;2022-07-10T09:46:27;100104.53;;;34.55;35.06
38022;BME280;23832;43.216;27.946;2022-07-10T09:48:29;100105.56;;;34.63;35.50
38022;BME280;23832;43.216;27.946;2022-07-10T09:50:33;100106.44;;;34.67;35.09
38022;BME280;23832;43.216;27.946;2022-07-10T09:52:34;100108.69;;;34.77;35.30
38022;BME280;23832;43.216;27.946;2022-07-10T09:54:37;100106.16;;;34.84;35.48
38022;BME280;23832;43.216;27.946;2022-07-10T09:56:39;100105.22;;;34.92;35.43
38022;BME280;23832;43.216;27.946;2022-07-10T09:58:42;100097.13;;;34.96;35.41
38022;BME280;23832;43.216;27.946;2022-07-10T10:00:45;100112.94;;;35.03;35.63
38022;BME280;23832;43.216;27.946;2022-07-10T10:02:47;100093.41;;;35.04;35.72
38022;BME280;23832;43.216;27.946;2022-07-10T10:04:48;100086.81;;;35.05;35.52
38022;BME280;23832;43.216;27.946;2022-07-10T10:06:53;100088.72;;;35.05;35.82
38022;BME280;23832;43.216;27.946;2022-07-10T10:08:59;100087.69;;;35.09;35.45
38022;BME280;23832;43.216;27.946;2022-07-10T10:11:05;100089.34;;;34.98;34.63
38022;BME280;23832;43.216;27.946;2022-07-10T10:13:09;100091.47;;;35.05;34.82
38022;BME280;23832;43.216;27.946;2022-07-10T10:15:12;100085.19;;;35.04;34.54
38022;BME280;23832;43.216;27.946;2022-07-10T10:17:13;100082.38;;;35.01;34.64
38022;BME280;23832;43.216;27.946;2022-07-10T10:19:18;100092.28;;;35.05;34.30
38022;BME280;23832;43.216;27.946;2022-07-10T10:21:38;100094.41;;;35.12;33.76
38022;BME280;23832;43.216;27.946;2022-07-10T10:23:41;100096.53;;;35.18;33.95
38022;BME280;23832;43.216;27.946;2022-07-10T10:25:46;100093.19;;;35.25;34.04
38022;BME280;23832;43.216;27.946;2022-07-10T10:27:48;100088.41;;;35.22;33.38
38022;BME280;23832;43.216;27.946;2022-07-10T10:29:49;100099.28;;;35.18;32.71
38022;BME280;23832;43.216;27.946;2022-07-10T10:31:52;100086.53;;;35.10;33.19